createdAt,value
2019-04-11T00:01:44.943Z,77.42
2019-04-11T00:04:08.294Z,72.55
2019-04-11T00:06:37.259Z,76.25
2019-04-11T00:09:10.253Z,78.35
2019-04-11T00:11:39.450Z,80.32
2019-04-11T00:14:08.558Z,81.85
2019-04-11T00:16:37.630Z,79.60
2019-04-11T00:19:07.320Z,77.85
2019-04-11T00:21:37.889Z,69.45
2019-04-11T00:24:07.184Z,82.37
2019-04-11T00:26:36.282Z,75.12
2019-04-11T00:29:05.926Z,74.85
2019-04-11T00:31:35.108Z,73.37
2019-04-11T00:34:04.723Z,75.65
2019-04-11T00:36:34.626Z,75.20
2019-04-11T00:39:05.885Z,73.97
2019-04-11T00:41:34.988Z,77.75
2019-04-11T00:44:04.435Z,75.95
2019-04-11T00:46:45.222Z,78.12
2019-04-11T00:49:14.438Z,76.57
2019-04-11T00:51:44.382Z,74.42
2019-04-11T00:54:14.249Z,76.85
2019-04-11T00:56:44.221Z,78.07
2019-04-11T00:59:14.154Z,74.55
2019-04-11T01:01:43.359Z,71.82
2019-04-11T01:04:12.361Z,72.92
2019-04-11T01:06:42.373Z,73.92
2019-04-11T01:09:12.494Z,71.07
2019-04-11T01:11:41.688Z,67.35
2019-04-11T01:14:10.760Z,80.95
2019-04-11T01:16:51.374Z,72.22
2019-04-11T01:19:20.497Z,63.25
2019-04-11T01:21:50.706Z,66.15
2019-04-11T01:24:20.163Z,63.33
2019-04-11T01:26:49.686Z,62.95
2019-04-11T01:29:19.666Z,64.62
2019-04-11T01:31:52.126Z,62.10
2019-04-11T01:34:21.058Z,61.95
2019-04-11T01:36:51.243Z,52.40
2019-04-11T01:39:43.383Z,55.40
2019-04-11T01:42:13.255Z,45.40
2019-04-11T01:44:43.034Z,39.75
2019-04-11T01:47:15.019Z,35.15
2019-04-11T01:49:44.168Z,30.70
2019-04-11T01:52:13.990Z,28.42
2019-04-11T01:54:43.873Z,29.80
2019-04-11T01:57:13.855Z,27.15
2019-04-11T01:59:43.797Z,25.50
2019-04-11T02:02:30.681Z,27.90
2019-04-11T02:05:16.722Z,24.82
2019-04-11T02:07:46.892Z,25.10
2019-04-11T02:10:16.904Z,32.58
2019-04-11T02:12:46.134Z,28.62
2019-04-11T02:15:16.462Z,23.47
2019-04-11T02:17:46.739Z,25.85
2019-04-11T02:20:16.693Z,25.72
2019-04-11T02:22:53.328Z,26.80
2019-04-11T02:25:40.755Z,29.23
2019-04-11T02:28:12.686Z,28.47
2019-04-11T02:30:47.999Z,27.85
2019-04-11T02:33:18.404Z,27.85
2019-04-11T02:35:49.215Z,27.42
2019-04-11T02:38:18.966Z,26.57
2019-04-11T02:40:49.980Z,26.20
2019-04-11T02:43:20.417Z,23.98
2019-04-11T02:46:00.175Z,23.55
2019-04-11T02:48:21.166Z,29.48
2019-04-11T02:50:50.934Z,25.72
2019-04-11T02:53:21.285Z,26.55
2019-04-11T02:55:52.193Z,28.60
2019-04-11T02:58:23.028Z,27.22
2019-04-11T03:00:53.825Z,26.62
2019-04-11T03:03:25.157Z,25.68
2019-04-11T03:05:55.423Z,24.57
2019-04-11T03:08:26.843Z,26.23
2019-04-11T03:10:57.499Z,25.05
2019-04-11T03:13:27.250Z,24.12
2019-04-11T03:16:10.129Z,26.40
2019-04-11T03:18:45.778Z,26.25
2019-04-11T03:21:04.521Z,25.08
2019-04-11T03:23:29.056Z,27.20
2019-04-11T03:25:58.335Z,25.62
2019-04-11T03:28:30.811Z,26.27
2019-04-11T03:31:26.338Z,24.25
2019-04-11T03:36:56.675Z,26.42
2019-04-11T03:38:53.514Z,25.77
2019-04-11T03:41:21.983Z,26.95
2019-04-11T03:43:42.278Z,23.32
2019-04-11T03:46:25.339Z,25.17
2019-04-11T03:48:49.631Z,24.87
2019-04-11T03:51:08.646Z,28.83
2019-04-11T03:53:37.928Z,26.35
2019-04-11T03:56:07.651Z,24.37
2019-04-11T03:58:37.389Z,24.67
2019-04-11T04:01:08.552Z,24.52
2019-04-11T04:03:38.714Z,22.40
2019-04-11T04:06:08.917Z,22.90
2019-04-11T04:08:39.104Z,25.60
2019-04-11T04:11:17.358Z,27.50
2019-04-11T04:13:56.896Z,24.75
2019-04-11T04:16:40.925Z,23.57
2019-04-11T04:19:15.738Z,25.65
2019-04-11T04:22:13.401Z,21.50
2019-04-11T04:24:44.590Z,26.82
2019-04-11T04:27:15.308Z,27.17
2019-04-11T04:29:48.663Z,24.40
2019-04-11T04:32:16.362Z,25.55
2019-04-11T04:34:46.475Z,26.52
2019-04-11T04:37:18.071Z,24.92
2019-04-11T04:39:48.015Z,28.12
2019-04-11T04:42:26.359Z,23.45
2019-04-11T04:44:48.898Z,30.55
2019-04-11T04:47:25.012Z,26.73
2019-04-11T04:49:49.837Z,25.72
2019-04-11T04:52:20.647Z,24.85
2019-04-11T04:54:49.928Z,23.55
2019-04-11T04:57:20.208Z,28.38
2019-04-11T04:59:49.806Z,28.12
2019-04-11T05:02:20.486Z,25.82
2019-04-11T05:04:49.721Z,24.85
2019-04-11T05:07:19.461Z,25.17
2019-04-11T05:09:50.189Z,26.27
2019-04-11T05:12:20.588Z,22.73
2019-04-11T05:14:49.897Z,27.82
2019-04-11T05:17:19.333Z,23.10
2019-04-11T05:19:48.772Z,25.90
2019-04-11T05:22:18.930Z,25.43
2019-04-11T05:24:48.086Z,29.90
2019-04-11T05:27:17.434Z,26.42
2019-04-11T05:29:46.652Z,24.72
2019-04-11T05:32:15.756Z,26.97
2019-04-11T05:34:45.627Z,27.98
2019-04-11T05:37:15.338Z,25.50
2019-04-11T05:39:44.935Z,26.42
2019-04-11T05:42:17.774Z,26.45
2019-04-11T05:44:45.162Z,26.27
2019-04-11T05:47:18.121Z,26.17
2019-04-11T05:49:52.959Z,26.70
2019-04-11T05:52:21.918Z,23.45
2019-04-11T05:54:54.333Z,26.10
2019-04-11T05:57:26.872Z,24.67
2019-04-11T05:59:55.157Z,26.95
2019-04-11T06:02:45.564Z,25.15
2019-04-11T06:05:37.852Z,28.35
2019-04-11T06:08:12.217Z,40.75
2019-04-11T06:11:04.288Z,24.70
2019-04-11T06:13:40.669Z,21.85
2019-04-11T06:16:10.468Z,25.52
2019-04-11T06:18:58.848Z,25.65
2019-04-11T06:21:34.368Z,23.50
2019-04-11T06:24:21.360Z,28.80
2019-04-11T06:27:22.177Z,25.43
2019-04-11T06:30:01.316Z,22.85
2019-04-11T06:32:56.304Z,29.05
2019-04-11T06:35:57.023Z,28.07
2019-04-11T06:38:49.171Z,24.47
2019-04-11T06:41:37.517Z,27.25
2019-04-11T06:44:16.403Z,23.77
2019-04-11T06:47:05.630Z,29.45
2019-04-11T06:49:56.578Z,29.67
2019-04-11T06:52:26.602Z,25.12
2019-04-11T06:55:27.216Z,22.77
2019-04-11T06:58:07.299Z,26.57
2019-04-11T07:00:37.492Z,28.30
2019-04-11T07:03:17.394Z,28.42
2019-04-11T07:05:38.614Z,24.07
2019-04-11T07:08:07.776Z,27.45
2019-04-11T07:10:44.944Z,25.08
2019-04-11T07:13:22.715Z,24.43
2019-04-11T07:16:00.479Z,25.80
2019-04-11T07:18:48.408Z,30.12
2019-04-11T07:21:17.411Z,32.13
2019-04-11T07:24:05.286Z,26.48
2019-04-11T07:26:39.718Z,25.62
2019-04-11T07:29:27.715Z,28.73
2019-04-11T07:32:11.717Z,31.48
2019-04-11T07:35:04.646Z,28.23
2019-04-11T07:37:38.739Z,25.23
2019-04-11T07:40:29.381Z,29.25
2019-04-11T07:43:18.811Z,27.15
2019-04-11T07:46:27.432Z,30.35
2019-04-11T07:49:05.966Z,32.33
2019-04-11T07:51:38.581Z,30.08
2019-04-11T07:54:10.202Z,31.37
2019-04-11T07:57:04.245Z,30.97
2019-04-11T08:00:08.168Z,26.45
2019-04-11T08:02:59.717Z,29.50
2019-04-11T08:05:41.024Z,28.47
2019-04-11T08:08:38.998Z,27.58
2019-04-11T08:11:25.563Z,26.80
2019-04-11T08:14:12.560Z,27.02
2019-04-11T08:17:03.818Z,26.57
2019-04-11T08:19:51.234Z,25.30
2019-04-11T08:22:39.662Z,25.27
2019-04-11T08:25:31.471Z,28.25
2019-04-11T08:28:04.827Z,26.30
2019-04-11T08:30:52.489Z,28.23
2019-04-11T08:33:22.447Z,28.70
2019-04-11T08:35:59.694Z,26.75
2019-04-11T08:38:31.920Z,31.17
2019-04-11T08:43:35.242Z,31.87
2019-04-11T08:46:14.916Z,32.35
2019-04-11T08:48:47.444Z,33.35
2019-04-11T08:51:16.974Z,31.50
2019-04-11T08:54:09.141Z,30.65
2019-04-11T08:56:39.666Z,28.15
2019-04-11T08:59:46.175Z,30.45
2019-04-11T09:02:19.068Z,28.80
2019-04-11T09:05:08.443Z,34.88
2019-04-11T09:07:43.570Z,28.10
2019-04-11T09:10:31.815Z,33.25
2019-04-11T09:13:11.091Z,30.27
2019-04-11T09:15:59.312Z,33.02
2019-04-11T09:18:30.213Z,31.12
2019-04-11T09:21:18.189Z,31.90
2019-04-11T09:23:48.116Z,30.60
2019-04-11T09:26:36.080Z,33.30
2019-04-11T09:29:05.993Z,28.92
2019-04-11T09:32:07.681Z,34.65
2019-04-11T09:34:56.103Z,36.40
2019-04-11T09:37:36.295Z,29.67
2019-04-11T09:40:26.272Z,32.55
2019-04-11T09:43:11.536Z,33.15
2019-04-11T09:46:06.144Z,36.38
2019-04-11T09:48:58.467Z,34.25
2019-04-11T09:51:45.256Z,30.37
2019-04-11T09:54:33.640Z,34.25
2019-04-11T09:57:22.840Z,35.03
2019-04-11T10:00:26.600Z,35.78
2019-04-11T10:02:58.766Z,35.00
2019-04-11T10:05:56.749Z,32.93
2019-04-11T10:08:39.869Z,36.50
2019-04-11T10:11:40.184Z,32.80
2019-04-11T10:14:11.451Z,35.13
2019-04-11T10:17:15.019Z,39.60
2019-04-11T10:19:49.291Z,32.48
2019-04-11T10:22:49.553Z,38.67
2019-04-11T10:25:35.038Z,36.70
2019-04-11T10:28:27.282Z,36.30
2019-04-11T10:31:20.407Z,37.42
2019-04-11T10:34:11.855Z,40.65
2019-04-11T10:37:03.577Z,37.73
2019-04-11T10:39:54.933Z,41.53
2019-04-11T10:42:26.684Z,40.90
2019-04-11T10:45:24.910Z,38.02
2019-04-11T10:47:57.710Z,40.15
2019-04-11T10:50:44.398Z,37.83
2019-04-11T10:53:13.526Z,37.30
2019-04-11T10:56:10.802Z,38.98
2019-04-11T10:58:51.323Z,40.08
2019-04-11T11:01:38.601Z,37.65
2019-04-11T11:04:13.877Z,35.52
2019-04-11T11:06:44.948Z,36.60
2019-04-11T11:09:39.367Z,38.95
2019-04-11T11:12:27.578Z,35.75
2019-04-11T11:15:15.572Z,40.17
2019-04-11T11:18:35.236Z,40.60
2019-04-11T11:20:48.116Z,37.42
2019-04-11T11:23:20.462Z,39.35
2019-04-11T11:26:00.589Z,36.25
2019-04-11T11:28:30.150Z,40.45
2019-04-11T11:31:10.107Z,36.63
2019-04-11T11:33:39.061Z,40.52
2019-04-11T11:36:26.160Z,40.75
2019-04-11T11:39:12.953Z,36.03
2019-04-11T11:42:00.025Z,36.68
2019-04-11T11:44:35.029Z,40.10
2019-04-11T11:47:21.743Z,38.30
2019-04-11T11:49:58.178Z,36.85
2019-04-11T11:52:45.531Z,40.20
2019-04-11T11:55:19.014Z,37.23
2019-04-11T11:57:55.218Z,40.55
2019-04-11T12:00:27.264Z,38.60
2019-04-11T12:03:19.097Z,39.08
2019-04-11T12:05:53.745Z,41.47
2019-04-11T12:08:46.667Z,37.70
2019-04-11T12:11:15.779Z,51.15
2019-04-11T12:14:02.692Z,40.73
2019-04-11T12:16:44.534Z,37.90
2019-04-11T12:19:26.896Z,48.10
2019-04-11T12:21:57.058Z,41.75
2019-04-11T12:24:34.423Z,40.73
2019-04-11T12:27:21.515Z,44.33
2019-04-11T12:30:10.715Z,43.42
2019-04-11T12:32:44.507Z,43.25
2019-04-11T12:35:50.991Z,45.90
2019-04-11T12:38:26.341Z,43.68
2019-04-11T12:41:13.094Z,46.80
2019-04-11T12:44:00.416Z,47.00
2019-04-11T12:46:47.122Z,42.45
2019-04-11T12:49:33.805Z,45.23
2019-04-11T12:52:21.002Z,45.98
2019-04-11T12:54:50.152Z,54.35
2019-04-11T12:57:53.448Z,44.95
2019-04-11T13:00:34.913Z,46.73
2019-04-11T13:03:28.880Z,46.33
2019-04-11T13:06:02.096Z,41.55
2019-04-11T13:08:49.063Z,43.90
2019-04-11T13:11:18.201Z,44.48
2019-04-11T13:14:02.329Z,44.35
2019-04-11T13:16:31.483Z,44.30
2019-04-11T13:19:18.234Z,48.55
2019-04-11T13:21:55.435Z,54.53
2019-04-11T13:24:42.292Z,49.33
2019-04-11T13:27:36.766Z,51.90
2019-04-11T13:30:25.174Z,51.68
2019-04-11T13:33:03.258Z,58.33
2019-04-11T13:36:03.526Z,62.05
2019-04-11T13:38:43.651Z,52.90
2019-04-11T13:41:30.418Z,59.50
2019-04-11T13:44:09.719Z,51.33
2019-04-11T13:46:57.211Z,56.80
2019-04-11T13:49:51.156Z,51.08
2019-04-11T13:52:39.226Z,50.88
2019-04-11T13:55:19.380Z,50.75
2019-04-11T13:58:07.515Z,55.73
2019-04-11T14:00:41.559Z,49.53
2019-04-11T14:03:48.466Z,53.60
2019-04-11T14:06:26.027Z,52.73
2019-04-11T14:09:20.214Z,55.58
2019-04-11T14:11:50.617Z,57.95
2019-04-11T14:14:44.873Z,62.38
2019-04-11T14:17:28.248Z,60.40
2019-04-11T14:20:28.246Z,52.35
2019-04-11T14:23:14.664Z,55.58
2019-04-11T14:26:01.830Z,57.17
2019-04-11T14:28:35.263Z,54.93
2019-04-11T14:31:22.220Z,59.90
2019-04-11T14:33:56.167Z,52.93
2019-04-11T14:36:47.541Z,53.28
2019-04-11T14:39:17.539Z,59.75
2019-04-11T14:42:01.056Z,56.77
2019-04-11T14:44:30.580Z,52.43
2019-04-11T14:47:30.586Z,56.23
2019-04-11T14:50:02.663Z,58.15
2019-04-11T14:52:56.622Z,60.33
2019-04-11T14:55:26.350Z,56.65
2019-04-11T14:58:13.009Z,61.55
2019-04-11T15:00:43.111Z,59.85
2019-04-11T15:03:29.877Z,60.60
2019-04-11T15:06:06.924Z,54.98
2019-04-11T15:08:53.692Z,58.23
2019-04-11T15:11:47.336Z,56.92
2019-04-11T15:14:41.843Z,57.67
2019-04-11T15:17:13.823Z,63.85
2019-04-11T15:19:46.230Z,56.23
2019-04-11T15:22:25.115Z,62.83
2019-04-11T15:24:57.674Z,58.70
2019-04-11T15:30:20.347Z,56.90
2019-04-11T15:33:11.505Z,53.85
2019-04-11T15:35:40.450Z,54.93
2019-04-11T15:38:37.609Z,62.35
2019-04-11T15:41:07.362Z,55.92
2019-04-11T15:43:54.144Z,59.63
2019-04-11T15:46:25.504Z,59.00
2019-04-11T15:49:20.505Z,55.03
2019-04-11T15:52:06.403Z,57.90
2019-04-11T15:54:53.429Z,53.45
2019-04-11T15:57:37.920Z,55.80
2019-04-11T16:00:29.045Z,55.85
2019-04-11T16:03:12.773Z,56.35
2019-04-11T16:06:09.977Z,55.20
2019-04-11T16:08:43.475Z,52.15
2019-04-11T16:14:25.788Z,56.23
2019-04-11T16:17:01.285Z,55.98
2019-04-11T16:19:36.960Z,55.50
2019-04-11T16:22:25.457Z,56.35
2019-04-11T16:24:58.316Z,57.62
2019-04-11T16:27:45.073Z,60.98
2019-04-11T16:30:15.791Z,56.60
2019-04-11T16:32:49.571Z,58.28
2019-04-11T16:35:37.611Z,58.30
2019-04-11T16:38:07.101Z,53.38
2019-04-11T16:40:54.170Z,61.75
2019-04-11T16:43:24.472Z,61.42
2019-04-11T16:46:15.906Z,54.30
2019-04-11T16:48:44.950Z,56.23
2019-04-11T16:51:13.990Z,55.98
2019-04-11T16:53:42.997Z,60.40
2019-04-11T16:56:12.845Z,53.25
2019-04-11T16:58:42.439Z,52.27
2019-04-11T17:01:11.464Z,53.08
2019-04-11T17:03:40.607Z,53.65
2019-04-11T17:06:28.754Z,56.63
2019-04-11T17:09:03.806Z,57.25
2019-04-11T17:11:33.007Z,54.48
2019-04-11T17:14:02.002Z,53.38
2019-04-11T17:16:31.112Z,54.60
2019-04-11T17:19:00.214Z,52.90
2019-04-11T17:21:29.222Z,54.70
2019-04-11T17:23:58.326Z,54.05
2019-04-11T17:26:27.382Z,55.80
2019-04-11T17:28:56.316Z,49.48
2019-04-11T17:31:25.992Z,56.90
2019-04-11T17:33:56.710Z,53.13
2019-04-11T17:36:26.351Z,51.23
2019-04-11T17:38:55.512Z,50.95
2019-04-11T17:41:24.512Z,53.78
2019-04-11T17:43:53.495Z,51.28
2019-04-11T17:46:26.755Z,52.00
2019-04-11T17:48:53.339Z,51.55
2019-04-11T17:51:22.363Z,50.73
2019-04-11T17:53:54.791Z,55.43
2019-04-11T17:56:24.794Z,49.45
2019-04-11T17:58:53.091Z,53.45
2019-04-11T18:01:22.192Z,49.88
2019-04-11T18:03:51.264Z,45.48
2019-04-11T18:06:20.347Z,45.48
2019-04-11T18:08:51.588Z,48.30
2019-04-11T18:11:20.264Z,49.27
2019-04-11T18:13:49.357Z,43.35
2019-04-11T18:16:18.276Z,44.00
2019-04-11T18:18:49.868Z,42.35
2019-04-11T18:21:19.016Z,43.87
2019-04-11T18:23:50.125Z,43.13
2019-04-11T18:26:19.053Z,44.15
2019-04-11T18:28:51.739Z,45.40
2019-04-11T18:31:24.777Z,44.65
2019-04-11T18:33:51.487Z,42.38
2019-04-11T18:36:20.585Z,45.98
2019-04-11T18:38:49.682Z,39.55
2019-04-11T18:41:18.756Z,39.98
2019-04-11T18:43:47.913Z,42.10
2019-04-11T18:46:17.255Z,43.23
2019-04-11T18:48:46.928Z,38.00
2019-04-11T18:51:16.095Z,41.18
2019-04-11T18:53:45.274Z,40.10
2019-04-11T18:56:14.335Z,45.43
2019-04-11T18:58:43.439Z,39.95
2019-04-11T19:01:13.123Z,39.92
2019-04-11T19:03:42.197Z,39.98
2019-04-11T19:06:13.139Z,46.02
2019-04-11T19:08:43.490Z,48.20
2019-04-11T19:11:15.382Z,38.95
2019-04-11T19:13:46.801Z,36.68
2019-04-11T19:16:16.111Z,39.10
2019-04-11T19:18:47.654Z,36.98
2019-04-11T19:21:20.208Z,40.15
2019-04-11T19:23:46.755Z,36.80
2019-04-11T19:26:16.008Z,41.85
2019-04-11T19:28:45.049Z,40.73
2019-04-11T19:31:14.169Z,40.58
2019-04-11T19:33:43.325Z,35.45
2019-04-11T19:36:12.905Z,36.90
2019-04-11T19:38:43.401Z,37.28
2019-04-11T19:41:16.984Z,40.00
2019-04-11T19:43:43.839Z,36.95
2019-04-11T19:46:12.826Z,33.85
2019-04-11T19:48:41.832Z,34.00
2019-04-11T19:51:11.120Z,38.70
2019-04-11T19:53:40.303Z,36.35
2019-04-11T19:56:16.976Z,39.23
2019-04-11T19:58:46.011Z,35.88
2019-04-11T20:01:15.105Z,31.37
2019-04-11T20:03:44.183Z,34.05
2019-04-11T20:06:13.562Z,33.90
2019-04-11T20:08:42.803Z,35.05
2019-04-11T20:11:11.793Z,34.80
2019-04-11T20:13:40.949Z,39.00
2019-04-11T20:16:12.412Z,32.25
2019-04-11T20:18:50.205Z,34.43
2019-04-11T20:21:11.649Z,32.38
2019-04-11T20:23:41.887Z,30.17
2019-04-11T20:26:11.495Z,33.45
2019-04-11T20:28:40.566Z,34.40
2019-04-11T20:31:09.668Z,33.42
2019-04-11T20:33:38.806Z,34.00
2019-04-11T20:36:08.171Z,37.88
2019-04-11T20:38:38.670Z,32.38
2019-04-11T20:41:07.783Z,32.50
2019-04-11T20:43:36.837Z,39.83
2019-04-11T20:46:05.843Z,33.95
2019-04-11T20:48:35.270Z,32.60
2019-04-11T20:51:04.476Z,37.83
2019-04-11T20:53:36.668Z,33.70
2019-04-11T20:56:04.297Z,34.27
2019-04-11T20:58:33.462Z,34.88
2019-04-11T21:01:02.960Z,31.95
2019-04-11T21:03:32.393Z,34.45
2019-04-11T21:06:01.984Z,35.98
2019-04-11T21:08:33.118Z,31.00
2019-04-11T21:11:04.548Z,29.80
2019-04-11T21:13:32.974Z,30.52
2019-04-11T21:16:01.957Z,36.30
2019-04-11T21:18:30.963Z,34.23
2019-04-11T21:21:00.007Z,33.02
2019-04-11T21:23:29.777Z,37.10
2019-04-11T21:25:59.720Z,32.98
2019-04-11T21:28:30.211Z,31.80
2019-04-11T21:31:00.140Z,33.13
2019-04-11T21:33:33.993Z,31.48
2019-04-11T21:36:01.360Z,35.05
2019-04-11T21:38:31.582Z,32.30
2019-04-11T21:41:00.847Z,37.25
2019-04-11T21:43:29.796Z,30.65
2019-04-11T21:45:58.944Z,30.90
2019-04-11T21:48:28.025Z,31.00
2019-04-11T21:50:57.116Z,33.78
2019-04-11T21:53:36.032Z,29.90
2019-04-11T21:55:57.065Z,32.03
2019-04-11T21:58:26.117Z,30.02
2019-04-11T22:01:01.475Z,35.25
2019-04-11T22:03:30.815Z,32.38
2019-04-11T22:06:00.573Z,35.08
2019-04-11T22:08:31.930Z,36.45
2019-04-11T22:11:03.032Z,27.65
2019-04-11T22:13:31.330Z,34.10
2019-04-11T22:16:00.328Z,28.67
2019-04-11T22:18:29.422Z,26.37
2019-04-11T22:20:58.510Z,34.58
2019-04-11T22:23:27.510Z,31.95
2019-04-11T22:25:56.422Z,32.38
2019-04-11T22:28:25.519Z,29.87
2019-04-11T22:30:55.081Z,28.42
2019-04-11T22:33:47.762Z,28.42
2019-04-11T22:36:16.743Z,35.80
2019-04-11T22:38:45.736Z,30.43
2019-04-11T22:41:14.831Z,29.30
2019-04-11T22:43:43.815Z,28.47
2019-04-11T22:46:20.654Z,30.02
2019-04-11T22:48:43.454Z,34.92
2019-04-11T22:51:12.566Z,31.27
2019-04-11T22:53:43.162Z,31.20
2019-04-11T22:56:12.590Z,32.42
2019-04-11T22:58:43.457Z,30.25
2019-04-11T23:01:13.978Z,27.00
2019-04-11T23:03:47.662Z,27.05
2019-04-11T23:06:17.256Z,28.10
2019-04-11T23:08:48.829Z,27.90
2019-04-11T23:11:17.649Z,32.95
2019-04-11T23:13:46.731Z,28.00
2019-04-11T23:16:15.948Z,30.02
2019-04-11T23:18:45.143Z,27.50
2019-04-11T23:21:15.046Z,29.02
2019-04-11T23:23:44.399Z,30.65
2019-04-11T23:26:13.536Z,30.05
2019-04-11T23:28:45.883Z,28.32
2019-04-11T23:31:13.756Z,30.30
2019-04-11T23:33:42.982Z,29.30
2019-04-11T23:36:12.127Z,29.37
2019-04-11T23:38:41.162Z,28.32
2019-04-11T23:41:10.269Z,32.42
2019-04-11T23:43:39.410Z,28.42
2019-04-11T23:46:08.428Z,30.23
2019-04-11T23:48:37.595Z,28.05
2019-04-11T23:51:06.834Z,31.52
2019-04-11T23:53:35.791Z,33.83
2019-04-11T23:56:04.871Z,31.68
2019-04-11T23:58:33.883Z,30.52
